Time;durP1;ratioP1;P1;durP2;ratioP2;P2;SDS_P1;SDS_P2;PMS_P1;PMS_P2;Temp;Humidity;BMP_temperature;BMP_pressure;BME280_temperature;BME280_humidity;BME280_pressure;Samples;Min_cycle;Max_cycle;Signal;HPM_P1;HPM_P2
2020/12/15 17:11:57;;;;;;;13.32;2.75;;;14.50;74.50;;;;;;2044294;27;54383;-73
2020/12/15 17:12:59;;;;;;;8.95;2.35;;;14.50;74.30;;;;;;2082956;28;20044;-73
2020/12/15 17:14:01;;;;;;;8.50;2.35;;;14.50;75.40;;;;;;2092979;28;20056;-72
2020/12/15 17:15:03;;;;;;;10.68;2.20;;;14.60;75.40;;;;;;2090573;28;20059;-73
2020/12/15 17:16:05;;;;;;;17.08;2.55;;;14.60;75.50;;;;;;2087667;28;20506;-72
2020/12/15 17:17:08;;;;;;;9.75;2.55;;;14.70;75.40;;;;;;2088394;28;20469;-73
2020/12/15 17:18:10;;;;;;;12.05;3.05;;;14.70;74.40;;;;;;2095952;28;20048;-73
2020/12/15 17:19:12;;;;;;;14.48;2.78;;;14.70;74.90;;;;;;2095578;28;20072;-73
2020/12/15 17:20:13;;;;;;;11.75;2.58;;;14.70;74.00;;;;;;2095688;28;20080;-72
2020/12/15 17:21:15;;;;;;;21.95;3.50;;;14.70;74.50;;;;;;2094807;28;20119;-73
2020/12/15 17:22:16;;;;;;;17.08;2.97;;;14.70;74.60;;;;;;2096038;28;20048;-73
2020/12/15 17:23:18;;;;;;;12.23;3.10;;;14.60;74.00;;;;;;2095804;28;20052;-75
2020/12/15 17:24:20;;;;;;;14.25;3.83;;;14.60;74.10;;;;;;2096516;28;20049;-73
2020/12/15 17:25:24;;;;;;;83.68;21.67;;;14.60;74.70;;;;;;2095897;28;20044;-74
2020/12/15 17:26:27;;;;;;;37.60;10.43;;;14.60;78.30;;;;;;2095841;28;20232;-73
2020/12/15 17:27:31;;;;;;;152.18;44.72;;;14.50;75.30;;;;;;2096144;28;20057;-75
2020/12/15 17:28:33;;;;;;;22.95;8.18;;;14.50;78.20;;;;;;2094872;28;20449;-73
2020/12/15 17:29:34;;;;;;;100.70;33.75;;;14.50;75.60;;;;;;2095922;28;20052;-74
2020/12/15 17:30:36;;;;;;;59.00;29.33;;;14.60;77.30;;;;;;2095925;28;20052;-73
2020/12/15 17:31:38;;;;;;;93.60;38.15;;;14.60;76.00;;;;;;2096077;28;20056;-73
2020/12/15 17:32:40;;;;;;;131.65;47.95;;;14.50;75.40;;;;;;2096006;28;20485;-73
2020/12/15 17:33:42;;;;;;;38.67;10.60;;;14.50;77.30;;;;;;2095953;28;20063;-73
2020/12/15 17:34:43;;;;;;;19.83;5.90;;;14.40;75.60;;;;;;2095893;28;20052;-71
2020/12/15 17:35:45;;;;;;;24.48;7.18;;;14.40;76.20;;;;;;2095105;28;20124;-71
2020/12/15 17:36:47;;;;;;;35.75;15.15;;;14.40;76.10;;;;;;2089971;28;20052;-74
2020/12/15 17:37:49;;;;;;;35.63;7.68;;;14.30;76.20;;;;;;2089265;28;20041;-72
2020/12/15 17:38:51;;;;;;;15.50;4.13;;;14.30;77.60;;;;;;2087654;28;20053;-72
2020/12/15 17:39:52;;;;;;;20.40;6.25;;;14.30;76.40;;;;;;2087471;28;20052;-72
2020/12/15 17:40:54;;;;;;;23.25;6.28;;;14.30;77.20;;;;;;2087799;28;20490;-75
2020/12/15 17:41:56;;;;;;;25.40;7.40;;;14.20;77.40;;;;;;2087282;28;20049;-71
2020/12/15 17:42:59;;;;;;;14.93;4.10;;;14.20;78.50;;;;;;2095937;28;20037;-72
2020/12/15 17:44:01;;;;;;;14.10;3.72;;;14.20;77.70;;;;;;2095620;28;20040;-72
2020/12/15 17:45:03;;;;;;;12.93;3.05;;;14.10;77.10;;;;;;2095338;28;20052;-72
2020/12/15 17:46:07;;;;;;;14.80;4.72;;;14.10;77.30;;;;;;2094618;28;20474;-72
2020/12/15 17:47:10;;;;;;;25.42;6.45;;;14.10;77.70;;;;;;2094206;28;20516;-72
2020/12/15 17:48:24;;;;;;;10.57;3.17;;;14.20;79.80;;;;;;2095314;28;20200;-71
2020/12/15 17:49:27;;;;;;;25.40;3.63;;;14.20;78.20;;;;;;2095805;28;20485;-72
2020/12/15 17:50:30;;;;;;;20.13;4.03;;;14.10;77.70;;;;;;2095700;28;20049;-74
2020/12/15 17:51:32;;;;;;;21.98;4.10;;;14.10;77.10;;;;;;2092084;28;20075;-72
2020/12/15 17:52:34;;;;;;;15.05;4.35;;;14.10;76.90;;;;;;2090524;28;20056;-72
2020/12/15 17:53:35;;;;;;;15.07;3.95;;;14.10;78.50;;;;;;2092827;28;20044;-73
2020/12/15 17:54:37;;;;;;;13.35;4.30;;;14.10;78.50;;;;;;2093000;28;20045;-74
2020/12/15 17:55:39;;;;;;;;;;;14.10;77.30;;;;;;2090767;28;20046;-73
2020/12/15 17:56:45;;;;;;;13.52;4.40;;;14.10;78.00;;;;;;2093305;28;19986;-72
2020/12/15 17:57:47;;;;;;;16.27;4.72;;;14.10;78.00;;;;;;2088393;28;20515;-71
2020/12/15 17:58:50;;;;;;;14.60;4.35;;;14.10;78.30;;;;;;2093333;28;20075;-72
2020/12/15 17:59:51;;;;;;;12.52;4.13;;;14.00;77.90;;;;;;2088407;28;20045;-73
2020/12/15 18:00:53;;;;;;;17.33;4.25;;;14.10;80.00;;;;;;2095814;28;20045;-74
2020/12/15 18:01:56;;;;;;;18.85;5.03;;;14.10;78.20;;;;;;2089535;28;20053;-72
2020/12/15 18:03:00;;;;;;;15.43;4.35;;;14.00;77.50;;;;;;2094877;28;20045;-72
2020/12/15 18:04:02;;;;;;;18.73;4.35;;;14.10;78.80;;;;;;2087645;28;20049;-73
2020/12/15 18:05:04;;;;;;;11.55;4.20;;;14.10;80.70;;;;;;2093055;28;20310;-74
2020/12/15 18:06:06;;;;;;;20.42;5.45;;;14.10;78.40;;;;;;2094720;28;20527;-71
2020/12/15 18:07:07;;;;;;;12.20;4.25;;;14.10;78.20;;;;;;2095480;28;20053;-73
2020/12/15 18:08:09;;;;;;;17.13;4.63;;;14.20;79.90;;;;;;2095999;28;20075;-73
2020/12/15 18:09:11;;;;;;;16.35;4.32;;;14.20;78.20;;;;;;2095051;28;20072;-73
2020/12/15 18:10:13;;;;;;;18.00;5.20;;;14.10;77.20;;;;;;2095847;28;20055;-71
2020/12/15 18:11:16;;;;;;;15.38;4.35;;;14.10;78.40;;;;;;2095430;28;20061;-73
2020/12/15 18:12:23;;;;;;;15.23;4.95;;;14.10;78.60;;;;;;2095969;28;20056;-73
2020/12/15 18:13:29;;;;;;;14.32;5.13;;;14.10;77.50;;;;;;2093761;28;20428;-73
2020/12/15 18:14:34;;;;;;;14.60;5.00;;;14.10;78.30;;;;;;2094116;28;20077;-74
2020/12/15 18:15:36;;;;;;;14.23;3.80;;;14.00;77.00;;;;;;2095167;28;20362;-71
2020/12/15 18:16:42;;;;;;;14.38;4.32;;;14.00;78.00;;;;;;2095251;28;20052;-74
2020/12/15 18:17:49;;;;;;;15.32;3.88;;;14.00;78.80;;;;;;2090531;28;20402;-71
2020/12/15 18:18:55;;;;;;;18.75;4.07;;;14.00;78.10;;;;;;2087319;28;20041;-71
2020/12/15 18:20:02;;;;;;;15.43;4.45;;;14.00;78.70;;;;;;2087386;28;20484;-72
2020/12/15 18:21:10;;;;;;;19.58;4.90;;;14.10;80.10;;;;;;2087237;28;20209;-72
2020/12/15 18:22:16;;;;;;;19.73;5.68;;;14.20;78.40;;;;;;2086928;28;20502;-71
2020/12/15 18:23:23;;;;;;;15.80;4.43;;;14.20;77.00;;;;;;2081126;28;20077;-72
2020/12/15 18:24:31;;;;;;;12.52;4.15;;;14.10;76.60;;;;;;2087939;28;20513;-70
2020/12/15 18:25:37;;;;;;;15.38;4.97;;;14.20;78.50;;;;;;2090579;28;20405;-73
2020/12/15 18:26:44;;;;;;;23.33;5.00;;;14.10;76.90;;;;;;2089703;28;20041;-70
2020/12/15 18:27:51;;;;;;;17.30;4.93;;;14.20;78.30;;;;;;2081693;28;20045;-71
2020/12/15 18:28:59;;;;;;;15.45;4.70;;;14.10;77.00;;;;;;2081295;28;20099;-72
2020/12/15 18:30:09;;;;;;;22.17;5.97;;;14.10;76.70;;;;;;2082868;28;20421;-70
2020/12/15 18:31:17;;;;;;;17.48;4.70;;;14.20;78.40;;;;;;2087498;28;20049;-70
2020/12/15 18:32:24;;;;;;;16.73;4.50;;;14.20;77.30;;;;;;2081726;28;20049;-70
2020/12/15 18:33:30;;;;;;;15.57;4.70;;;14.30;78.50;;;;;;2082986;28;20049;-71
2020/12/15 18:34:37;;;;;;;16.85;4.70;;;14.20;76.50;;;;;;2087153;28;20049;-72
2020/12/15 18:35:44;;;;;;;12.40;4.63;;;14.10;77.20;;;;;;2084798;28;20128;-72
2020/12/15 18:36:50;;;;;;;18.40;4.65;;;14.10;77.50;;;;;;2089748;28;20509;-72
2020/12/15 18:37:57;;;;;;;13.77;4.82;;;14.20;78.60;;;;;;2081827;28;20045;-71
2020/12/15 18:39:00;;;;;;;20.45;5.72;;;14.20;77.00;;;;;;2082148;28;20064;-73
2020/12/15 18:40:09;;;;;;;15.57;4.95;;;14.20;77.50;;;;;;2082169;28;20083;-73
2020/12/15 18:41:15;;;;;;;14.07;4.60;;;14.20;77.40;;;;;;2081868;28;20049;-72
2020/12/15 18:42:22;;;;;;;14.25;4.63;;;14.20;78.10;;;;;;2081897;28;20049;-71
2020/12/15 18:43:28;;;;;;;15.45;4.85;;;14.30;77.40;;;;;;2081726;28;20050;-73
2020/12/15 18:44:35;;;;;;;18.23;4.72;;;14.20;76.50;;;;;;2081350;28;20489;-72
2020/12/15 18:45:37;;;;;;;23.40;5.15;;;14.20;76.50;;;;;;2081581;28;20041;-72
2020/12/15 18:46:44;;;;;;;17.20;4.85;;;14.20;76.60;;;;;;2085478;28;20041;-73
2020/12/15 18:47:50;;;;;;;16.45;4.78;;;14.10;76.50;;;;;;2086414;28;20052;-74
2020/12/15 18:48:52;;;;;;;12.88;4.63;;;14.10;76.70;;;;;;2085584;28;20071;-72
2020/12/15 18:49:59;;;;;;;15.00;4.57;;;14.10;78.10;;;;;;2085381;28;20050;-70
2020/12/15 18:51:05;;;;;;;16.20;5.32;;;14.10;78.00;;;;;;2081386;28;20344;-74
2020/12/15 18:52:14;;;;;;;19.80;4.85;;;14.20;78.20;;;;;;2081984;28;20402;-74
2020/12/15 18:53:20;;;;;;;17.08;4.13;;;14.20;78.30;;;;;;2082693;28;20077;-73
2020/12/15 18:54:27;;;;;;;18.98;5.78;;;14.20;77.30;;;;;;2081588;28;20056;-73
2020/12/15 18:55:33;;;;;;;12.23;5.05;;;14.10;76.40;;;;;;2090438;28;20037;-75
2020/12/15 18:56:43;;;;;;;12.60;5.53;;;14.10;77.30;;;;;;2090791;28;20052;-76
2020/12/15 18:57:50;;;;;;;13.07;5.28;;;14.10;77.70;;;;;;2091331;28;20556;-75
2020/12/15 18:58:57;;;;;;;14.85;5.20;;;14.10;77.20;;;;;;2090109;28;20053;-74
2020/12/15 19:00:04;;;;;;;13.80;4.90;;;14.10;77.70;;;;;;2092828;28;20049;-70
2020/12/15 19:01:11;;;;;;;19.85;5.13;;;14.10;77.60;;;;;;2091533;28;20060;-74
2020/12/15 19:02:18;;;;;;;12.45;4.88;;;14.10;77.50;;;;;;2093350;28;20219;-73
2020/12/15 19:03:25;;;;;;;13.93;5.05;;;14.20;77.80;;;;;;2098877;28;20050;-71
2020/12/15 19:04:31;;;;;;;12.88;5.28;;;14.20;76.60;;;;;;2095290;28;20060;-72
2020/12/15 19:05:38;;;;;;;12.38;5.43;;;14.10;76.60;;;;;;2089104;28;20070;-74
2020/12/15 19:06:45;;;;;;;18.35;5.63;;;14.10;77.40;;;;;;2086004;28;20482;-73
2020/12/15 19:07:51;;;;;;;16.05;5.00;;;14.00;76.70;;;;;;2089013;28;20048;-71
2020/12/15 19:08:58;;;;;;;20.00;5.15;;;14.00;76.80;;;;;;2089156;28;20049;-71
2020/12/15 19:10:04;;;;;;;24.45;6.40;;;14.00;77.60;;;;;;2093629;28;20057;-73
2020/12/15 19:11:11;;;;;;;14.30;5.15;;;13.90;77.30;;;;;;2096515;28;20051;-72
2020/12/15 19:12:18;;;;;;;17.15;5.30;;;13.90;77.20;;;;;;2090375;28;20044;-75
2020/12/15 19:13:25;;;;;;;14.70;5.28;;;13.90;77.50;;;;;;2090462;28;20057;-74
2020/12/15 19:14:32;;;;;;;15.60;5.07;;;13.80;77.20;;;;;;2087446;28;20083;-75
2020/12/15 19:15:39;;;;;;;16.73;4.90;;;13.90;77.70;;;;;;2085255;28;20926;-74
2020/12/15 19:16:47;;;;;;;17.02;5.65;;;13.80;77.70;;;;;;2089387;28;20049;-74
2020/12/15 19:17:56;;;;;;;15.15;5.35;;;13.80;77.20;;;;;;2089775;28;20053;-74
2020/12/15 19:18:58;;;;;;;15.95;5.80;;;13.80;77.10;;;;;;2089680;28;20052;-74
2020/12/15 19:20:09;;;;;;;19.75;5.70;;;13.70;77.20;;;;;;2089185;28;20107;-74
2020/12/15 19:21:11;;;;;;;17.70;5.15;;;13.70;78.80;;;;;;2089845;28;20102;-80
2020/12/15 19:22:17;;;;;;;14.38;5.32;;;13.70;78.10;;;;;;2090281;28;20407;-76
2020/12/15 19:23:24;;;;;;;20.13;6.20;;;13.70;77.50;;;;;;2091993;28;20056;-78
2020/12/15 19:24:31;;;;;;;13.25;4.47;;;13.70;77.30;;;;;;2092654;28;20041;-75
2020/12/15 19:25:38;;;;;;;19.02;5.93;;;13.70;78.80;;;;;;2092516;28;20056;-77
2020/12/15 19:26:45;;;;;;;15.63;5.20;;;13.70;77.90;;;;;;2086175;28;20069;-76
2020/12/15 19:27:51;;;;;;;16.08;5.97;;;13.60;77.50;;;;;;2092235;28;20049;-73
2020/12/15 19:28:59;;;;;;;13.50;5.70;;;13.60;77.70;;;;;;2091908;28;20045;-77
2020/12/15 19:30:00;;;;;;;14.98;5.18;;;13.60;77.60;;;;;;2094091;28;20091;-77
2020/12/15 19:31:07;;;;;;;18.48;5.15;;;13.60;78.90;;;;;;2093626;28;20053;-78
2020/12/15 19:32:17;;;;;;;16.55;5.57;;;13.60;79.60;;;;;;2092571;28;20057;-74
2020/12/15 19:33:24;;;;;;;17.15;4.40;;;13.50;79.10;;;;;;2100143;28;20072;-74
2020/12/15 19:34:31;;;;;;;26.48;5.38;;;13.50;79.40;;;;;;2091738;28;20382;-77
2020/12/15 19:35:33;;;;;;;17.90;5.22;;;13.60;80.50;;;;;;2094065;28;20280;-77
2020/12/15 19:36:37;;;;;;;21.33;4.80;;;13.70;79.90;;;;;;2101662;28;20040;-77
2020/12/15 19:37:40;;;;;;;15.13;4.25;;;13.70;78.90;;;;;;2093675;28;20093;-77
2020/12/15 19:38:47;;;;;;;13.93;3.97;;;13.80;79.50;;;;;;2093643;28;20040;-79
2020/12/15 19:39:49;;;;;;;14.60;4.75;;;13.90;80.30;;;;;;2094038;28;20048;-72
2020/12/15 19:40:51;;;;;;;19.75;4.35;;;14.00;78.90;;;;;;2094977;28;20064;-79
2020/12/15 19:42:03;;;;;;;14.40;4.20;;;14.00;79.50;;;;;;2094983;28;20049;-76
2020/12/15 19:43:10;;;;;;;20.25;4.22;;;14.00;78.40;;;;;;2094266;28;20053;-77
2020/12/15 19:44:15;;;;;;;17.38;4.45;;;14.10;78.80;;;;;;2093401;28;20045;-78
2020/12/15 19:45:27;;;;;;;17.73;4.40;;;14.20;78.70;;;;;;2095505;28;20040;-78
2020/12/15 19:46:34;;;;;;;13.07;4.68;;;14.20;77.90;;;;;;2094725;28;20052;-78
2020/12/15 19:47:50;;;;;;;16.10;4.80;;;14.20;77.90;;;;;;2093350;28;20053;-79
2020/12/15 19:48:58;;;;;;;18.88;4.88;;;14.30;77.90;;;;;;2091791;28;20049;-77
2020/12/15 19:50:00;;;;;;;12.70;4.65;;;14.40;77.90;;;;;;2091996;28;20052;-77
2020/12/15 19:51:01;;;;;;;15.23;4.70;;;14.40;76.90;;;;;;2092964;28;20060;-78
2020/12/15 19:52:03;;;;;;;11.18;4.00;;;14.30;76.50;;;;;;2092734;28;20049;-77
2020/12/15 19:53:10;;;;;;;9.80;3.90;;;14.30;76.90;;;;;;2092548;28;20048;-76
2020/12/15 19:54:16;;;;;;;17.98;4.63;;;14.30;76.60;;;;;;2092268;28;20059;-75
2020/12/15 19:55:23;;;;;;;12.05;4.03;;;14.30;77.00;;;;;;2091247;28;20057;-78
2020/12/15 19:56:30;;;;;;;12.80;4.22;;;14.30;77.20;;;;;;2091487;28;20056;-76
2020/12/15 19:57:39;;;;;;;10.88;4.78;;;14.40;77.30;;;;;;2093027;28;20045;-76
2020/12/15 19:58:46;;;;;;;13.85;4.00;;;14.40;76.80;;;;;;2092381;28;20107;-77
2020/12/15 19:59:53;;;;;;;12.40;4.07;;;14.40;76.70;;;;;;2092440;28;20048;-77
2020/12/15 20:01:00;;;;;;;15.57;4.45;;;14.40;76.60;;;;;;2092663;28;20080;-78
2020/12/15 20:02:03;;;;;;;13.70;4.43;;;14.50;76.60;;;;;;2092675;28;20383;-77
2020/12/15 20:03:11;;;;;;;11.07;4.32;;;14.50;76.30;;;;;;2093202;28;20068;-78
2020/12/15 20:04:12;;;;;;;14.07;3.90;;;14.50;76.60;;;;;;2092868;28;20040;-78
2020/12/15 20:05:14;;;;;;;13.55;4.63;;;14.50;76.80;;;;;;2091438;28;20049;-78
2020/12/15 20:06:22;;;;;;;18.80;4.43;;;14.60;76.20;;;;;;2092102;28;20068;-76
2020/12/15 20:07:24;;;;;;;13.10;4.25;;;14.60;76.50;;;;;;2093829;28;20045;-78
2020/12/15 20:08:25;;;;;;;13.88;4.32;;;14.50;76.20;;;;;;2092779;28;20048;-77
2020/12/15 20:09:28;;;;;;;12.45;5.65;;;14.60;76.10;;;;;;2092970;28;20041;-77
2020/12/15 20:10:29;;;;;;;12.27;4.70;;;14.50;75.60;;;;;;2092589;28;20041;-78
2020/12/15 20:11:31;;;;;;;15.73;4.95;;;14.50;75.00;;;;;;2090552;28;20049;-77
2020/12/15 20:12:33;;;;;;;13.00;4.25;;;14.40;75.10;;;;;;2090739;28;20044;-77
2020/12/15 20:13:36;;;;;;;11.00;4.57;;;14.50;75.80;;;;;;2090159;28;20045;-77
2020/12/15 20:14:39;;;;;;;10.63;4.13;;;14.50;76.40;;;;;;2090757;28;20517;-77
2020/12/15 20:15:41;;;;;;;12.18;4.25;;;14.50;75.90;;;;;;2090086;28;20048;-78
2020/12/15 20:16:49;;;;;;;14.10;4.80;;;14.50;76.10;;;;;;2084383;28;20060;-79
2020/12/15 20:17:54;;;;;;;15.98;4.00;;;14.50;75.50;;;;;;2090561;28;20056;-77
2020/12/15 20:18:56;;;;;;;12.43;4.30;;;14.50;75.70;;;;;;2088709;28;20132;-76
2020/12/15 20:19:58;;;;;;;15.50;4.30;;;14.50;75.90;;;;;;2084340;28;20076;-77
2020/12/15 20:21:07;;;;;;;21.20;5.15;;;14.50;76.10;;;;;;2088863;28;20320;-77
2020/12/15 20:22:13;;;;;;;12.82;4.22;;;14.40;75.30;;;;;;2090670;28;20055;-76
2020/12/15 20:23:22;;;;;;;10.30;4.15;;;14.50;76.10;;;;;;2090931;28;20509;-77
2020/12/15 20:24:23;;;;;;;15.38;4.68;;;14.50;76.00;;;;;;2089003;28;20053;-77
2020/12/15 20:25:25;;;;;;;9.18;4.20;;;14.50;75.90;;;;;;2089862;28;20045;-77
2020/12/15 20:26:27;;;;;;;9.43;3.20;;;14.50;75.80;;;;;;2098441;28;20060;-77
2020/12/15 20:27:33;;;;;;;8.45;3.25;;;14.60;76.70;;;;;;2090536;28;20052;-76
2020/12/15 20:28:36;;;;;;;14.60;3.85;;;14.60;76.60;;;;;;2082746;28;20056;-77
2020/12/15 20:29:43;;;;;;;9.45;4.55;;;14.70;76.10;;;;;;2089869;28;20192;-77
2020/12/15 20:30:45;;;;;;;10.98;3.88;;;14.70;75.00;;;;;;2075155;28;20057;-77
2020/12/15 20:31:53;;;;;;;11.25;4.00;;;14.70;75.00;;;;;;2090743;28;20068;-77
2020/12/15 20:32:55;;;;;;;11.80;3.60;;;14.70;75.20;;;;;;2091246;28;20053;-77
2020/12/15 20:34:04;;;;;;;11.98;4.45;;;14.80;75.60;;;;;;2090421;28;20132;-77
2020/12/15 20:35:06;;;;;;;12.07;4.30;;;14.70;74.90;;;;;;2091131;28;20119;-77
2020/12/15 20:36:08;;;;;;;11.38;4.55;;;14.70;75.00;;;;;;2098974;28;20040;-77
2020/12/15 20:37:11;;;;;;;12.27;4.10;;;14.70;74.40;;;;;;2083000;28;20050;-77
2020/12/15 20:38:15;;;;;;;10.32;4.03;;;14.50;74.80;;;;;;2082825;28;20505;-78
2020/12/15 20:39:22;;;;;;;9.98;4.47;;;14.60;75.10;;;;;;2091909;28;20048;-77
2020/12/15 20:40:25;;;;;;;22.63;3.85;;;14.50;75.10;;;;;;2091502;28;20053;-77
2020/12/15 20:41:26;;;;;;;12.18;3.03;;;14.50;75.90;;;;;;2091473;28;20063;-77
2020/12/15 20:42:33;;;;;;;10.48;3.50;;;14.50;76.10;;;;;;2091556;28;20054;-78
2020/12/15 20:43:40;;;;;;;10.07;3.83;;;14.60;75.70;;;;;;2091136;28;20514;-78
2020/12/15 20:44:44;;;;;;;10.27;3.85;;;14.50;75.80;;;;;;2092298;28;20517;-77
2020/12/15 20:45:51;;;;;;;9.07;3.60;;;14.60;75.60;;;;;;2096589;28;20059;-77
2020/12/15 20:46:57;;;;;;;8.60;3.22;;;14.50;75.00;;;;;;2089122;28;20037;-77
2020/12/15 20:47:59;;;;;;;13.20;3.80;;;14.60;75.60;;;;;;2091852;28;20037;-77
2020/12/15 20:49:04;;;;;;;11.13;3.80;;;14.60;75.10;;;;;;2091984;28;20439;-77
2020/12/15 20:50:09;;;;;;;9.95;3.70;;;14.60;75.40;;;;;;2091438;28;20056;-78
2020/12/15 20:51:11;;;;;;;11.32;3.92;;;14.60;75.10;;;;;;2087799;28;20056;-77
2020/12/15 20:52:25;;;;;;;9.82;3.50;;;14.60;75.30;;;;;;2092022;28;20052;-77
2020/12/15 20:53:28;;;;;;;6.25;3.50;;;14.60;75.10;;;;;;2098074;28;20064;-78
2020/12/15 20:54:32;;;;;;;12.95;4.03;;;14.60;75.30;;;;;;2090146;28;20069;-77
2020/12/15 20:55:39;;;;;;;8.10;3.30;;;14.60;74.90;;;;;;2083539;28;20057;-77
2020/12/15 20:56:42;;;;;;;8.75;3.38;;;14.70;75.10;;;;;;2093558;28;20532;-77
2020/12/15 20:57:44;;;;;;;10.88;3.67;;;14.60;76.00;;;;;;2091978;28;20049;-77
2020/12/15 20:58:45;;;;;;;14.90;4.55;;;14.60;74.90;;;;;;2090808;28;20045;-77
2020/12/15 20:59:47;;;;;;;8.68;3.80;;;14.60;74.90;;;;;;2092133;28;20049;-77
2020/12/15 21:00:49;;;;;;;8.15;3.40;;;14.60;75.30;;;;;;2086417;28;20041;-77
2020/12/15 21:01:52;;;;;;;9.85;3.90;;;14.60;75.40;;;;;;2092281;28;20045;-77
2020/12/15 21:02:54;;;;;;;10.25;3.22;;;14.60;74.90;;;;;;2091496;28;20167;-77
2020/12/15 21:04:02;;;;;;;12.20;4.43;;;14.60;75.00;;;;;;2091084;28;20052;-77
2020/12/15 21:05:04;;;;;;;8.65;4.10;;;14.60;74.60;;;;;;2091650;28;20057;-77
2020/12/15 21:06:07;;;;;;;12.90;4.15;;;14.60;74.50;;;;;;2098398;28;20041;-77
2020/12/15 21:07:09;;;;;;;11.18;4.10;;;14.60;74.90;;;;;;2092301;28;20060;-77
2020/12/15 21:08:14;;;;;;;6.85;3.58;;;14.60;75.10;;;;;;2091687;28;20068;-77
2020/12/15 21:09:21;;;;;;;12.73;4.28;;;14.60;75.20;;;;;;2092474;28;20044;-77
2020/12/15 21:10:22;;;;;;;9.98;3.88;;;14.60;75.50;;;;;;2091490;28;20045;-78
2020/12/15 21:11:27;;;;;;;7.47;3.83;;;14.60;74.70;;;;;;2091953;28;20085;-79
2020/12/15 21:12:29;;;;;;;10.55;3.72;;;14.60;75.20;;;;;;2099961;28;20056;-76
2020/12/15 21:13:31;;;;;;;15.38;4.43;;;14.60;75.40;;;;;;2099686;28;20052;-76
2020/12/15 21:14:37;;;;;;;10.48;3.25;;;14.70;75.10;;;;;;2093237;28;20052;-77
2020/12/15 21:15:39;;;;;;;9.65;3.55;;;14.70;74.90;;;;;;2089840;28;20090;-77
2020/12/15 21:16:41;;;;;;;9.00;4.20;;;14.60;75.10;;;;;;2084639;28;20062;-77
2020/12/15 21:17:47;;;;;;;10.45;3.80;;;14.60;74.60;;;;;;2084267;28;20041;-76
2020/12/15 21:18:49;;;;;;;8.55;3.70;;;14.60;75.60;;;;;;2086174;28;20045;-77
2020/12/15 21:19:56;;;;;;;7.20;3.60;;;14.70;75.30;;;;;;2084099;28;20042;-76
2020/12/15 21:21:05;;;;;;;14.88;3.20;;;14.70;75.40;;;;;;2083718;28;20057;-76
2020/12/15 21:22:12;;;;;;;8.82;3.30;;;14.80;75.50;;;;;;2084365;28;20052;-77
2020/12/15 21:23:19;;;;;;;12.88;4.07;;;14.70;75.30;;;;;;2084365;28;20057;-76
2020/12/15 21:24:26;;;;;;;10.02;4.03;;;14.70;75.00;;;;;;2100310;28;20045;-77
2020/12/15 21:25:33;;;;;;;11.77;4.55;;;14.70;74.40;;;;;;2090144;28;20049;-76
2020/12/15 21:26:40;;;;;;;10.68;4.43;;;14.70;74.00;;;;;;2083772;28;20045;-76
2020/12/15 21:27:47;;;;;;;9.25;3.97;;;14.60;73.60;;;;;;2083912;28;20050;-76
2020/12/15 21:28:54;;;;;;;9.05;3.35;;;14.60;74.80;;;;;;2085015;28;20054;-79
2020/12/15 21:29:56;;;;;;;10.90;3.83;;;14.70;75.80;;;;;;2084477;28;20061;-76
2020/12/15 21:31:05;;;;;;;6.88;3.67;;;14.70;75.20;;;;;;2083615;28;20056;-78
2020/12/15 21:32:12;;;;;;;6.88;3.15;;;14.70;75.10;;;;;;2083076;28;20489;-75
2020/12/15 21:33:16;;;;;;;8.38;3.90;;;14.70;74.50;;;;;;2082629;28;20054;-75
2020/12/15 21:34:17;;;;;;;11.77;4.25;;;14.70;74.70;;;;;;2083344;28;20104;-78
2020/12/15 21:35:19;;;;;;;10.27;3.28;;;14.80;74.60;;;;;;2081541;28;20054;-76
2020/12/15 21:36:21;;;;;;;12.82;4.00;;;14.70;74.50;;;;;;2080476;28;20414;-75
2020/12/15 21:37:22;;;;;;;5.93;2.97;;;14.70;73.90;;;;;;2081568;28;20406;-78
2020/12/15 21:38:25;;;;;;;10.60;3.60;;;14.80;75.00;;;;;;2081267;28;20508;-77
2020/12/15 21:39:27;;;;;;;9.50;3.90;;;14.80;74.40;;;;;;2081078;28;20060;-77
2020/12/15 21:40:29;;;;;;;6.63;3.20;;;14.70;74.30;;;;;;2081453;28;20053;-77
2020/12/15 21:41:41;;;;;;;7.22;3.08;;;14.80;75.00;;;;;;2080442;28;20138;-76
2020/12/15 21:42:45;;;;;;;8.30;3.58;;;14.80;73.80;;;;;;2082219;28;20536;-76
2020/12/15 21:43:47;;;;;;;8.65;3.03;;;14.80;74.30;;;;;;2088482;28;20064;-76
2020/12/15 21:44:49;;;;;;;12.60;4.00;;;14.80;74.70;;;;;;2089196;28;20136;-78
2020/12/15 21:45:53;;;;;;;11.43;3.80;;;14.90;73.80;;;;;;2089568;28;20497;-76
2020/12/15 21:46:55;;;;;;;13.15;3.53;;;14.80;72.80;;;;;;2089377;28;20413;-77
2020/12/15 21:47:57;;;;;;;;;;;14.80;74.70;;;;;;2089203;28;20041;-77
2020/12/15 21:48:59;;;;;;;12.45;3.75;;;14.80;74.10;;;;;;2089835;28;19928;-78
2020/12/15 21:50:04;;;;;;;9.95;4.15;;;14.80;73.70;;;;;;2089876;28;20060;-78
2020/12/15 21:51:07;;;;;;;11.13;3.72;;;14.70;73.30;;;;;;2089432;28;20041;-77
2020/12/15 21:52:10;;;;;;;8.98;3.65;;;14.70;72.90;;;;;;2089279;28;20045;-76
2020/12/15 21:53:12;;;;;;;9.23;4.18;;;14.60;74.00;;;;;;2088645;28;20102;-76
2020/12/15 21:54:16;;;;;;;11.55;3.65;;;14.60;74.30;;;;;;2088757;28;20060;-78
2020/12/15 21:55:19;;;;;;;10.05;4.07;;;14.60;74.30;;;;;;2089093;28;20354;-76
2020/12/15 21:56:21;;;;;;;17.95;3.85;;;14.60;74.20;;;;;;2089328;28;20417;-75
2020/12/15 21:57:23;;;;;;;13.10;4.50;;;14.60;75.00;;;;;;2089464;28;20412;-76
2020/12/15 21:58:24;;;;;;;7.85;3.60;;;14.60;73.60;;;;;;2090166;28;20052;-75
2020/12/15 21:59:26;;;;;;;12.15;3.42;;;14.60;74.40;;;;;;2091483;28;20053;-75
2020/12/15 22:00:28;;;;;;;8.45;3.92;;;14.60;74.50;;;;;;2090930;28;20397;-75
2020/12/15 22:01:29;;;;;;;8.02;3.10;;;14.60;74.90;;;;;;2090989;28;20409;-78
2020/12/15 22:02:31;;;;;;;7.60;3.63;;;14.60;74.10;;;;;;2091360;28;20048;-77
2020/12/15 22:03:33;;;;;;;12.60;4.70;;;14.60;74.10;;;;;;2091200;28;20575;-76
2020/12/15 22:04:38;;;;;;;13.35;4.65;;;14.60;73.60;;;;;;2090782;28;20129;-76
2020/12/15 22:05:40;;;;;;;7.03;3.53;;;14.70;73.80;;;;;;2090099;28;20075;-76
2020/12/15 22:06:43;;;;;;;9.55;3.50;;;14.60;74.90;;;;;;2090040;28;20052;-75
2020/12/15 22:07:45;;;;;;;10.73;3.58;;;14.70;74.60;;;;;;2090527;28;20091;-75
2020/12/15 22:08:46;;;;;;;10.60;4.10;;;14.70;74.40;;;;;;2090298;28;20045;-75
2020/12/15 22:09:48;;;;;;;8.07;3.72;;;14.60;74.30;;;;;;2090554;28;20094;-76
2020/12/15 22:10:51;;;;;;;10.05;3.63;;;14.60;73.90;;;;;;2091675;28;20071;-78
2020/12/15 22:11:53;;;;;;;9.60;3.83;;;14.60;74.10;;;;;;2091164;28;20064;-76
2020/12/15 22:12:55;;;;;;;7.22;4.25;;;14.60;74.10;;;;;;2091058;28;20064;-78
2020/12/15 22:13:56;;;;;;;8.82;3.40;;;14.60;74.30;;;;;;2091243;28;20041;-75
2020/12/15 22:14:58;;;;;;;8.82;3.90;;;14.60;74.40;;;;;;2090723;28;20493;-76
2020/12/15 22:16:01;;;;;;;8.15;3.17;;;14.60;73.70;;;;;;2090597;28;20494;-77
2020/12/15 22:17:03;;;;;;;9.50;3.53;;;14.60;74.10;;;;;;2090296;28;20049;-77
2020/12/15 22:18:05;;;;;;;8.95;3.83;;;14.60;74.30;;;;;;2090019;28;20087;-77
2020/12/15 22:19:06;;;;;;;;;;;14.50;74.10;;;;;;2090924;28;20103;-76
2020/12/15 22:20:09;;;;;;;8.55;4.30;;;14.60;74.60;;;;;;2089485;28;20377;-77
2020/12/15 22:21:11;;;;;;;10.00;4.70;;;14.60;74.20;;;;;;2090535;28;20053;-77
2020/12/15 22:22:13;;;;;;;9.30;3.92;;;14.50;74.20;;;;;;2090730;28;20080;-77
2020/12/15 22:23:15;;;;;;;13.65;3.88;;;14.50;74.30;;;;;;2091058;28;20049;-77
2020/12/15 22:24:17;;;;;;;10.27;4.18;;;14.50;74.10;;;;;;2091127;28;20072;-76
2020/12/15 22:25:18;;;;;;;11.98;3.50;;;14.50;73.90;;;;;;2090387;28;20501;-76
2020/12/15 22:26:25;;;;;;;11.65;4.40;;;14.50;74.10;;;;;;2090621;28;20472;-75
2020/12/15 22:27:28;;;;;;;7.80;3.40;;;14.50;75.00;;;;;;2090474;28;20049;-75
2020/12/15 22:28:30;;;;;;;8.05;3.65;;;14.60;75.20;;;;;;2091342;28;20049;-77
2020/12/15 22:29:31;;;;;;;9.48;3.72;;;14.70;75.00;;;;;;2091804;28;20056;-75
2020/12/15 22:30:33;;;;;;;8.75;3.85;;;14.70;74.40;;;;;;2090981;28;20052;-75
2020/12/15 22:31:35;;;;;;;8.00;3.95;;;14.70;74.40;;;;;;2091336;28;20060;-76
2020/12/15 22:32:36;;;;;;;13.80;4.43;;;14.70;73.70;;;;;;2091086;28;20041;-76
2020/12/15 22:33:39;;;;;;;;;;;14.70;73.60;;;;;;2093255;28;20099;-76
2020/12/15 22:34:40;;;;;;;6.07;3.20;;;14.70;74.50;;;;;;2093243;28;19920;-76
2020/12/15 22:35:42;;;;;;;7.95;3.47;;;14.70;74.10;;;;;;2092108;28;20048;-76
2020/12/15 22:36:47;;;;;;;10.02;3.40;;;14.70;74.00;;;;;;2092042;28;20056;-77
2020/12/15 22:37:50;;;;;;;8.85;3.65;;;14.80;74.30;;;;;;2093022;28;20052;-77
2020/12/15 22:38:52;;;;;;;11.43;4.18;;;14.80;74.10;;;;;;2092148;28;20052;-76
2020/12/15 22:39:54;;;;;;;7.95;3.72;;;14.80;74.00;;;;;;2091970;28;20051;-76
2020/12/15 22:40:55;;;;;;;13.35;4.28;;;14.80;74.70;;;;;;2092553;28;20077;-76
2020/12/15 22:41:57;;;;;;;9.90;4.72;;;14.80;73.40;;;;;;2091921;28;20413;-77
2020/12/15 22:42:59;;;;;;;13.38;4.68;;;14.80;73.50;;;;;;2091961;28;20056;-77